Time;durP1;ratioP1;P1;durP2;ratioP2;P2;SDS_P1;SDS_P2;PMS_P1;PMS_P2;Temp;Humidity;BMP_temperature;BMP_pressure;BME280_temperature;BME280_humidity;BME280_pressure;Samples;Min_cycle;Max_cycle;Signal;HPM_P1;HPM_P2
2024/03/28 00:00:34;;;;;;;0.55;0.55;;;;;;;;;;5049759;28;20382;-77
2024/03/28 00:03:00;;;;;;;0.60;0.60;;;;;;;;;;5050596;28;20028;-78
2024/03/28 00:05:26;;;;;;;0.52;0.43;;;;;;;;;;5049335;28;20104;-78
2024/03/28 00:07:52;;;;;;;6.80;0.60;;;;;;;;;;5050637;28;20074;-77
2024/03/28 00:10:18;;;;;;;0.50;0.50;;;;;;;;;;5049460;28;20032;-78
2024/03/28 00:12:44;;;;;;;1.88;0.73;;;;;;;;;;5050904;28;20021;-78
2024/03/28 00:15:10;;;;;;;0.63;0.60;;;;;;;;;;5049770;28;20064;-78
2024/03/28 00:17:36;;;;;;;0.50;0.50;;;;;;;;;;5049881;28;20532;-77
2024/03/28 00:20:03;;;;;;;1.65;0.80;;;;;;;;;;5045295;28;20032;-77
2024/03/28 00:22:29;;;;;;;3.80;0.85;;;;;;;;;;5030975;28;20025;-78
2024/03/28 00:24:55;;;;;;;0.52;0.52;;;;;;;;;;5031491;28;20044;-77
2024/03/28 00:27:21;;;;;;;1.13;1.02;;;;;;;;;;5031545;28;20621;-77
2024/03/28 00:29:47;;;;;;;0.60;0.60;;;;;;;;;;5031596;28;20049;-77
2024/03/28 00:32:13;;;;;;;0.82;0.70;;;;;;;;;;5031891;28;20021;-78
2024/03/28 00:34:39;;;;;;;0.90;0.68;;;;;;;;;;5031945;28;20049;-78
2024/03/28 00:37:06;;;;;;;2.45;1.15;;;;;;;;;;5027034;28;20037;-77
2024/03/28 00:39:32;;;;;;;0.50;0.50;;;;;;;;;;5030570;28;20025;-77
2024/03/28 00:41:57;;;;;;;1.90;0.68;;;;;;;;;;5031654;28;20080;-78
2024/03/28 00:44:23;;;;;;;0.43;0.43;;;;;;;;;;5032900;28;20056;-77
2024/03/28 00:46:49;;;;;;;1.27;0.63;;;;;;;;;;5031653;28;20052;-77
2024/03/28 00:49:15;;;;;;;0.80;0.80;;;;;;;;;;5028080;28;20072;-78
2024/03/28 00:51:42;;;;;;;1.67;0.75;;;;;;;;;;5023158;28;20913;-77
2024/03/28 00:54:08;;;;;;;0.87;0.80;;;8.60;80.20;;;;;;5032553;28;20407;-78
2024/03/28 00:56:34;;;;;;;0.50;0.50;;;;;;;;;;5031847;28;20029;-78
2024/03/28 00:59:00;;;;;;;4.07;0.60;;;;;;;;;;5028652;28;20030;-78
2024/03/28 01:01:26;;;;;;;0.50;0.50;;;;;;;;;;5023516;28;20426;-78
2024/03/28 01:03:52;;;;;;;1.08;0.90;;;;;;;;;;5032203;28;20018;-77
2024/03/28 01:06:18;;;;;;;0.70;0.70;;;;;;;;;;5030996;28;20737;-78
2024/03/28 01:08:44;;;;;;;0.70;0.70;;;;;;;;;;5034907;28;20053;-77
2024/03/28 01:11:10;;;;;;;0.60;0.60;;;;;;;;;;5032560;28;20029;-77
2024/03/28 01:13:37;;;;;;;0.55;0.55;;;;;;;;;;5032783;28;20034;-78
2024/03/28 01:16:03;;;;;;;0.60;0.60;;;8.40;69.60;;;;;;5030033;28;20037;-77
2024/03/28 01:18:29;;;;;;;1.15;0.98;;;;;;;;;;5032229;28;20033;-78
2024/03/28 01:20:55;;;;;;;1.55;0.77;;;;;;;;;;5030621;28;20029;-78
2024/03/28 01:23:21;;;;;;;3.45;0.95;;;;;;;;;;5045801;28;20391;-77
2024/03/28 01:25:47;;;;;;;0.70;0.70;;;;;;;;;;5049092;28;20021;-78
2024/03/28 01:28:13;;;;;;;0.82;0.80;;;;;;;;;;5048307;28;20025;-78
2024/03/28 01:30:39;;;;;;;1.17;0.70;;;;;;;;;;5048952;28;20087;-77
2024/03/28 01:33:05;;;;;;;10.75;0.80;;;;;;;;;;5049199;28;20487;-78
2024/03/28 01:35:31;;;;;;;0.73;0.73;;;;;;;;;;5049066;28;20036;-78
2024/03/28 01:37:57;;;;;;;0.77;0.60;;;;;;;;;;5047334;28;20615;-78
2024/03/28 01:40:23;;;;;;;0.50;0.50;;;;;;;;;;5040518;28;20037;-77
2024/03/28 01:42:49;;;;;;;0.68;0.63;;;;;;;;;;5047913;28;20076;-77
2024/03/28 01:45:15;;;;;;;1.90;0.90;;;;;;;;;;5047757;28;20060;-77
2024/03/28 01:47:41;;;;;;;1.02;0.93;;;;;;;;;;5034861;28;20104;-77
2024/03/28 01:50:08;;;;;;;1.50;0.90;;;9.00;87.10;;;;;;5035269;28;20451;-77
2024/03/28 01:52:34;;;;;;;1.05;0.63;;;;;;;;;;5046613;28;20025;-77
2024/03/28 01:55:00;;;;;;;11.95;1.17;;;;;;;;;;5047376;28;20037;-77
2024/03/28 01:57:26;;;;;;;1.73;0.85;;;;;;;;;;5047230;28;20025;-78
2024/03/28 01:59:52;;;;;;;0.65;0.65;;;;;;;;;;5048335;28;20560;-78
2024/03/28 02:02:20;;;;;;;0.90;0.57;;;9.50;68.60;;;;;;5047408;28;20025;-78
2024/03/28 02:04:47;;;;;;;0.40;0.40;;;9.60;68.00;;;;;;5048061;28;20025;-77
2024/03/28 02:07:13;;;;;;;0.60;0.60;;;;;;;;;;5034611;28;20032;-77
2024/03/28 02:09:39;;;;;;;1.38;0.70;;;;;;;;;;5047718;28;20017;-78
2024/03/28 02:12:04;;;;;;;0.50;0.50;;;9.90;87.50;;;;;;5046531;28;20035;-77
2024/03/28 02:14:30;;;;;;;0.95;0.77;;;;;;;;;;5047575;28;20037;-77
2024/03/28 02:17:04;;;;;;;1.00;0.50;;;9.70;68.20;;;;;;5045816;28;20025;-77
2024/03/28 02:19:30;;;;;;;1.10;0.60;;;;;;;;;;5045616;28;20039;-77
2024/03/28 02:21:56;;;;;;;1.67;0.60;;;;;;;;;;5035022;28;20041;-78
2024/03/28 02:24:22;;;;;;;0.55;0.55;;;;;;;;;;5042924;28;20040;-77
2024/03/28 02:26:48;;;;;;;1.50;0.60;;;;;;;;;;5047893;28;20059;-78
2024/03/28 02:29:14;;;;;;;2.58;1.15;;;;;;;;;;5048448;28;20052;-77
2024/03/28 02:31:40;;;;;;;2.95;0.80;;;;;;;;;;5041971;28;20028;-78
2024/03/28 02:34:06;;;;;;;0.80;0.80;;;9.70;88.40;;;;;;5041324;28;20140;-78
2024/03/28 02:36:32;;;;;;;0.70;0.70;;;;;;;;;;5047871;28;20043;-78
2024/03/28 02:38:58;;;;;;;1.42;0.93;;;;;;;;;;5048735;28;20036;-78
2024/03/28 02:41:24;;;;;;;1.35;1.02;;;;;;;;;;5048449;28;20059;-78
2024/03/28 02:43:49;;;;;;;1.27;0.90;;;;;;;;;;5047823;28;20041;-77
2024/03/28 02:46:15;;;;;;;0.63;0.60;;;;;;;;;;5048118;28;20389;-79
2024/03/28 02:48:41;;;;;;;2.60;0.95;;;;;;;;;;5047251;28;20017;-78
2024/03/28 02:51:07;;;;;;;1.83;0.88;;;;;;;;;;5036393;28;20509;-77
2024/03/28 02:53:33;;;;;;;3.55;1.08;;;;;;;;;;5047169;28;20032;-79
2024/03/28 02:55:59;;;;;;;0.60;0.60;;;;;;;;;;5048312;28;20052;-78
2024/03/28 02:58:26;;;;;;;1.20;0.60;;;;;;;;;;5046011;28;20029;-77
2024/03/28 03:00:52;;;;;;;3.10;2.53;;;;;;;;;;5022631;28;20403;-78
2024/03/28 03:03:18;;;;;;;0.55;0.50;;;;;;;;;;5046499;28;20025;-78
2024/03/28 03:05:44;;;;;;;0.50;0.50;;;9.40;86.50;;;;;;5045783;28;20033;-77
2024/03/28 03:08:11;;;;;;;1.15;1.00;;;;;;;;;;5032697;28;20037;-78
2024/03/28 03:10:37;;;;;;;0.65;0.60;;;;;;;;;;5028149;28;20017;-77
2024/03/28 03:13:03;;;;;;;1.92;1.00;;;;;;;;;;5032616;28;20041;-78
2024/03/28 03:15:29;;;;;;;0.77;0.70;;;;;;;;;;5030044;28;20117;-77
2024/03/28 03:17:56;;;;;;;0.63;0.55;;;;;;;;;;5034577;28;20120;-78
2024/03/28 03:20:24;;;;;;;0.80;0.80;;;;;;;;;;5047847;28;20040;-78
2024/03/28 03:22:53;;;;;;;1.23;1.13;;;;;;;;;;5048362;28;20086;-77
2024/03/28 03:25:27;;;;;;;1.67;0.80;;;;;;;;;;5043542;28;20117;-77
2024/03/28 03:36:07;;;;;;;9.52;1.05;;;;;;;;;;5032509;28;20044;-78
2024/03/28 03:38:33;;;;;;;2.28;0.57;;;;;;;;;;5030530;28;20400;-78
2024/03/28 03:41:00;;;;;;;0.75;0.75;;;;;;;;;;5032988;28;20030;-78
2024/03/28 03:43:26;;;;;;;3.40;0.77;;;;;;;;;;5028772;28;20025;-78
2024/03/28 03:45:52;;;;;;;0.60;0.60;;;;;;;;;;5051191;28;20024;-78
2024/03/28 03:48:18;;;;;;;0.45;0.45;;;;;;;;;;5050858;28;20028;-79
2024/03/28 03:50:44;;;;;;;2.97;0.52;;;;;;;;;;5045088;28;20654;-78
2024/03/28 03:53:10;;;;;;;0.50;0.50;;;;;;;;;;5042753;28;20032;-78
2024/03/28 03:55:36;;;;;;;4.38;0.95;;;8.80;99.90;;;;;;5041865;28;20136;-78
2024/03/28 03:58:02;;;;;;;0.40;0.40;;;;;;;;;;5049440;28;20158;-78
2024/03/28 04:00:28;;;;;;;0.40;0.40;;;8.70;99.90;;;;;;5025728;28;20028;-78
2024/03/28 04:02:54;;;;;;;0.47;0.47;;;;;;;;;;5049975;28;20033;-78
2024/03/28 04:05:20;;;;;;;0.50;0.50;;;;;;;;;;5038068;28;20055;-78
2024/03/28 04:07:46;;;;;;;0.35;0.35;;;8.40;99.90;;;;;;5049283;28;20032;-78
2024/03/28 04:10:12;;;;;;;0.38;0.38;;;;;;;;;;5050489;28;20028;-78
2024/03/28 04:12:38;;;;;;;0.50;0.50;;;;;;;;;;5047401;28;20032;-78
2024/03/28 04:15:04;;;;;;;0.40;0.40;;;8.50;99.90;;;;;;5048727;28;20427;-78
2024/03/28 04:17:34;;;;;;;0.32;0.32;;;8.20;96.20;;;;;;5037318;28;20021;-79
2024/03/28 04:20:00;;;;;;;0.40;0.40;;;;;;;;;;5024988;28;20115;-78
2024/03/28 04:22:26;;;;;;;0.40;0.40;;;;;;;;;;5050888;28;20451;-79
2024/03/28 04:24:53;;;;;;;0.40;0.40;;;8.20;94.80;;;;;;5037489;28;20025;-78
2024/03/28 04:27:19;;;;;;;;;;;8.20;94.90;;;;;;5037556;28;20132;-77
2024/03/28 04:29:45;;;;;;;0.73;0.60;;;;;;;;;;5044151;28;19999;-77
2024/03/28 04:32:11;;;;;;;0.40;0.40;;;;;;;;;;5044301;28;20017;-78
2024/03/28 04:34:37;;;;;;;1.20;0.70;;;;;;;;;;5049269;28;20037;-78
2024/03/28 04:37:03;;;;;;;0.30;0.30;;;;;;;;;;5040738;28;20025;-78
2024/03/28 04:39:30;;;;;;;0.40;0.40;;;;;;;;;;5047416;28;20025;-78
2024/03/28 04:41:56;;;;;;;0.40;0.40;;;;;;;;;;5042599;28;20488;-78
2024/03/28 04:44:22;;;;;;;0.40;0.40;;;;;;;;;;5047640;28;20071;-78
2024/03/28 04:46:47;;;;;;;0.40;0.40;;;;;;;;;;5045680;28;20044;-78
2024/03/28 04:49:13;;;;;;;0.40;0.40;;;;;;;;;;5046911;28;20045;-77
2024/03/28 04:51:42;;;;;;;0.40;0.40;;;8.00;93.40;;;;;;5032997;28;20036;-78
2024/03/28 04:54:08;;;;;;;0.30;0.30;;;;;;;;;;5047301;28;20520;-78
2024/03/28 04:56:39;;;;;;;0.30;0.30;;;;;;;;;;5044144;28;20021;-78
2024/03/28 04:59:05;;;;;;;0.30;0.30;;;7.80;99.90;;;;;;5047092;28;20029;-78
2024/03/28 05:01:31;;;;;;;0.30;0.30;;;;;;;;;;5042668;28;20554;-78
2024/03/28 05:03:57;;;;;;;0.40;0.40;;;;;;;;;;5046322;28;20021;-78
2024/03/28 05:06:23;;;;;;;0.40;0.40;;;;;;;;;;5042870;28;20032;-78
2024/03/28 05:08:49;;;;;;;0.40;0.40;;;;;;;;;;5046726;28;20048;-78
2024/03/28 05:11:15;;;;;;;0.90;0.60;;;;;;;;;;5042841;28;20037;-78
2024/03/28 05:13:41;;;;;;;1.13;0.68;;;;;;;;;;5046504;28;20028;-78
2024/03/28 05:16:08;;;;;;;0.52;0.52;;;;;;;;;;5042185;28;20045;-77
2024/03/28 05:18:34;;;;;;;0.67;0.67;;;;;;;;;;5031063;28;20423;-76
2024/03/28 05:21:01;;;;;;;3.85;1.65;;;;;;;;;;5030611;28;20112;-77
2024/03/28 05:23:27;;;;;;;3.30;1.80;;;;;;;;;;5029808;28;20025;-77
2024/03/28 05:25:53;;;;;;;1.23;1.05;;;;;;;;;;5020624;28;20165;-76
2024/03/28 05:28:18;;;;;;;0.52;0.52;;;7.40;99.90;;;;;;5030046;28;20499;-77
2024/03/28 05:30:45;;;;;;;0.40;0.40;;;;;;;;;;5025169;28;20037;-77
2024/03/28 05:33:11;;;;;;;0.70;0.70;;;;;;;;;;5032140;28;20037;-77
2024/03/28 05:35:38;;;;;;;1.00;0.85;;;;;;;;;;5043124;28;20248;-78
2024/03/28 05:38:03;;;;;;;0.47;0.47;;;7.10;99.90;;;;;;5039457;28;20021;-77
2024/03/28 05:40:29;;;;;;;0.73;0.60;;;;;;;;;;5037598;28;20021;-77
2024/03/28 05:42:55;;;;;;;0.68;0.68;;;;;;;;;;5046256;28;20718;-77
2024/03/28 05:45:21;;;;;;;0.70;0.68;;;;;;;;;;5043462;28;20075;-78
2024/03/28 05:47:47;;;;;;;0.55;0.55;;;;;;;;;;5041237;28;20501;-78
2024/03/28 05:50:13;;;;;;;0.77;0.77;;;;;;;;;;5043405;28;20028;-77
2024/03/28 05:52:39;;;;;;;0.60;0.60;;;;;;;;;;5046574;28;20506;-77
2024/03/28 05:55:05;;;;;;;0.63;0.63;;;7.00;99.90;;;;;;5031777;28;20037;-76
2024/03/28 05:57:30;;;;;;;1.73;1.45;;;7.10;99.90;;;;;;5046886;28;20765;-77
2024/03/28 05:59:56;;;;;;;0.73;0.73;;;;;;;;;;5042591;28;20028;-76
2024/03/28 06:02:22;;;;;;;1.17;1.08;;;;;;;;;;5046474;28;20052;-77
2024/03/28 06:04:48;;;;;;;0.80;0.80;;;;;;;;;;5038718;28;20056;-77
2024/03/28 06:07:15;;;;;;;4.18;0.85;;;7.10;99.10;;;;;;5039558;28;20038;-77
2024/03/28 06:09:41;;;;;;;0.50;0.50;;;;;;;;;;5037011;28;20552;-77
2024/03/28 06:12:07;;;;;;;0.50;0.50;;;;;;;;;;5037067;28;20037;-77
2024/03/28 06:14:36;;;;;;;0.40;0.40;;;;;;;;;;5039432;28;20034;-77
2024/03/28 06:17:02;;;;;;;0.60;0.60;;;;;;;;;;5021704;28;20510;-77
2024/03/28 06:19:28;;;;;;;0.60;0.60;;;;;;;;;;5040346;28;20027;-77
2024/03/28 06:21:54;;;;;;;0.40;0.40;;;;;;;;;;5047858;28;20514;-76
2024/03/28 06:24:20;;;;;;;4.75;0.70;;;;;;;;;;5039214;28;20026;-77
2024/03/28 06:26:47;;;;;;;1.65;0.70;;;7.70;92.00;;;;;;5025583;28;20040;-77
2024/03/28 06:29:13;;;;;;;3.10;0.60;;;;;;;;;;5031669;28;20412;-77
2024/03/28 06:31:40;;;;;;;0.50;0.50;;;;;;;;;;5047462;28;20033;-77
2024/03/28 06:34:08;;;;;;;1.23;0.60;;;8.10;70.30;;;;;;5032365;28;20029;-77
2024/03/28 06:36:37;;;;;;;0.68;0.68;;;;;;;;;;5022606;28;20041;-77
2024/03/28 06:39:03;;;;;;;0.50;0.50;;;;;;;;;;5018076;28;20632;-77
2024/03/28 06:41:29;;;;;;;0.63;0.63;;;;;;;;;;5016368;28;20061;-76
2024/03/28 06:43:55;;;;;;;0.60;0.60;;;;;;;;;;5017965;28;20094;-77
2024/03/28 06:46:21;;;;;;;13.77;1.00;;;;;;;;;;5025463;28;20026;-77
2024/03/28 06:48:48;;;;;;;0.50;0.50;;;8.50;67.20;;;;;;5024227;28;20021;-77
2024/03/28 06:51:14;;;;;;;0.50;0.50;;;;;;;;;;5037354;28;20403;-78
2024/03/28 06:53:40;;;;;;;0.60;0.60;;;;;;;;;;5044008;28;20029;-77
2024/03/28 06:56:06;;;;;;;1.60;0.60;;;8.60;74.50;;;;;;5047391;28;20041;-77
2024/03/28 06:58:32;;;;;;;0.50;0.50;;;8.60;86.70;;;;;;5029456;28;20503;-77
2024/03/28 07:00:59;;;;;;;0.40;0.40;;;8.80;67.40;;;;;;5027735;28;20407;-77
2024/03/28 07:03:25;;;;;;;0.85;0.60;;;;;;;;;;5032139;28;20028;-77
2024/03/28 07:05:51;;;;;;;0.40;0.40;;;;;;;;;;5045888;28;20442;-77
2024/03/28 07:08:17;;;;;;;0.43;0.43;;;;;;;;;;5046962;28;20034;-76
2024/03/28 07:10:43;;;;;;;0.50;0.50;;;;;;;;;;5026572;28;20058;-77
2024/03/28 07:13:09;;;;;;;0.55;0.55;;;;;;;;;;5031426;28;20614;-75
2024/03/28 07:15:35;;;;;;;0.50;0.50;;;;;;;;;;5022660;28;20048;-79
2024/03/28 07:18:01;;;;;;;0.88;0.50;;;;;;;;;;5027901;28;20021;-79
2024/03/28 07:20:27;;;;;;;0.55;0.55;;;;;;;;;;5012291;28;20029;-76
2024/03/28 07:22:53;;;;;;;0.57;0.57;;;;;;;;;;5026793;28;20632;-76
2024/03/28 07:25:19;;;;;;;0.73;0.73;;;;;;;;;;5025922;28;20025;-80
2024/03/28 07:27:46;;;;;;;0.80;0.80;;;;;;;;;;5024334;28;20052;-76
2024/03/28 07:30:12;;;;;;;1.20;0.80;;;14.90;58.30;;;;;;5030906;28;20180;-76
2024/03/28 07:32:38;;;;;;;0.77;0.77;;;15.30;67.30;;;;;;5025612;28;20575;-76
2024/03/28 07:35:04;;;;;;;1.08;1.08;;;;;;;;;;5019234;28;20103;-76
2024/03/28 07:37:31;;;;;;;0.75;0.75;;;;;;;;;;5025813;28;20024;-76
2024/03/28 07:39:57;;;;;;;0.77;0.77;;;;;;;;;;5031624;28;20033;-78
2024/03/28 07:42:23;;;;;;;0.90;0.90;;;;;;;;;;5032341;28;20017;-76
2024/03/28 07:44:49;;;;;;;2.17;1.48;;;27.90;39.80;;;;;;5032671;28;20047;-76
2024/03/28 07:47:15;;;;;;;1.08;0.70;;;;;;;;;;5017056;28;20609;-78
2024/03/28 07:49:41;;;;;;;0.75;0.70;;;;;;;;;;5027703;28;20040;-76
2024/03/28 07:52:06;;;;;;;1.35;0.70;;;31.20;42.90;;;;;;5032366;28;20104;-85
2024/03/28 07:54:32;;;;;;;3.22;0.68;;;;;;;;;;5021690;28;20034;-83
2024/03/28 07:56:58;;;;;;;3.65;0.80;;;;;;;;;;5024815;28;20040;-80
2024/03/28 07:59:24;;;;;;;2.58;0.40;;;;;;;;;;5027407;28;20032;-77
2024/03/28 08:01:50;;;;;;;0.30;0.30;;;37.80;30.00;;;;;;5027550;28;20078;-79
2024/03/28 08:04:16;;;;;;;1.60;0.70;;;;;;;;;;5030094;28;20442;-79
2024/03/28 08:06:42;;;;;;;0.28;0.13;;;36.60;27.80;;;;;;5026434;28;20037;-78
2024/03/28 08:09:09;;;;;;;1.23;0.33;;;;;;;;;;5029934;28;20087;-77
2024/03/28 08:11:35;;;;;;;0.82;0.10;;;;;;;;;;5030102;28;20041;-77
2024/03/28 08:14:01;;;;;;;0.77;0.20;;;;;;;;;;5033577;28;20025;-78
2024/03/28 08:16:26;;;;;;;0.83;0.20;;;34.10;32.90;;;;;;5020651;28;20514;-77
2024/03/28 08:18:53;;;;;;;0.50;0.20;;;;;;;;;;5029550;28;20051;-78
2024/03/28 08:21:19;;;;;;;0.28;0.20;;;;;;;;;;5029656;28;20180;-77
2024/03/28 08:23:45;;;;;;;0.70;0.35;;;;;;;;;;5028200;28;20029;-78
2024/03/28 08:26:11;;;;;;;0.32;0.25;;;;;;;;;;5026839;28;20029;-78
2024/03/28 08:28:38;;;;;;;8.45;0.40;;;;;;;;;;5030079;28;20052;-78
2024/03/28 08:31:06;;;;;;;0.65;0.35;;;42.50;27.80;;;;;;5037555;28;20032;-78
2024/03/28 08:33:34;;;;;;;0.40;0.10;;;39.70;20.20;;;;;;5029776;28;20036;-79
2024/03/28 08:36:02;;;;;;;0.30;0.20;;;39.20;21.70;;;;;;5020019;28;20111;-78
2024/03/28 08:38:28;;;;;;;1.02;0.22;;;;;;;;;;5026645;28;20034;-78
2024/03/28 08:40:55;;;;;;;1.00;0.32;;;;;;;;;;5033623;28;20024;-78
2024/03/28 08:43:21;;;;;;;1.88;0.30;;;;;;;;;;5027511;28;20033;-77
2024/03/28 08:45:47;;;;;;;2.00;0.10;;;;;;;;;;5021781;28;20043;-77
2024/03/28 08:48:13;;;;;;;3.83;0.25;;;30.70;33.20;;;;;;5027384;28;20032;-78
2024/03/28 08:50:39;;;;;;;0.17;0.17;;;;;;;;;;5022698;28;20025;-77
2024/03/28 08:53:05;;;;;;;0.32;0.20;;;;;;;;;;5018791;28;20034;-77
2024/03/28 08:55:32;;;;;;;1.13;0.63;;;;;;;;;;5019948;28;20049;-77
2024/03/28 08:57:58;;;;;;;0.63;0.25;;;;;;;;;;5025813;28;20113;-77
2024/03/28 09:00:25;;;;;;;0.73;0.40;;;;;;;;;;5026967;28;20091;-77
2024/03/28 09:02:52;;;;;;;2.17;0.38;;;28.90;25.00;;;;;;5028688;28;20029;-79
2024/03/28 09:05:18;;;;;;;0.52;0.20;;;31.10;30.40;;;;;;5022400;28;20033;-79
2024/03/28 09:07:49;;;;;;;0.68;0.28;;;30.10;33.90;;;;;;5024739;28;20450;-79
2024/03/28 09:10:15;;;;;;;2.75;0.57;;;;;;;;;;5026414;28;20021;-80
2024/03/28 09:12:41;;;;;;;0.88;0.32;;;;;;;;;;5026873;28;20120;-79
2024/03/28 09:15:10;;;;;;;1.23;0.50;;;30.90;23.80;;;;;;5026105;28;20044;-82
2024/03/28 09:17:36;;;;;;;1.05;0.10;;;;;;;;;;5022154;28;20087;-80
2024/03/28 09:20:06;;;;;;;0.25;0.25;;;29.80;24.00;;;;;;5028288;28;20480;-79
2024/03/28 09:22:33;;;;;;;2.65;0.40;;;;;;;;;;5027508;28;20095;-80
2024/03/28 09:25:00;;;;;;;1.00;0.40;;;33.00;22.80;;;;;;5023066;28;20092;-79
2024/03/28 09:27:27;;;;;;;1.77;0.30;;;32.70;31.40;;;;;;5023176;28;20392;-80
2024/03/28 09:29:55;;;;;;;0.88;0.30;;;;;;;;;;5024292;28;20595;-77
2024/03/28 09:32:21;;;;;;;0.80;0.30;;;;;;;;;;5027512;28;20026;-78
2024/03/28 09:34:48;;;;;;;0.30;0.22;;;36.10;27.40;;;;;;5027287;28;20049;-78
2024/03/28 09:37:14;;;;;;;0.60;0.20;;;36.00;28.80;;;;;;5023263;28;20041;-79
2024/03/28 09:39:40;;;;;;;1.60;0.20;;;35.40;28.30;;;;;;5031872;28;20025;-79
2024/03/28 09:42:07;;;;;;;0.47;0.47;;;;;;;;;;5028273;28;20268;-82
2024/03/28 09:44:33;;;;;;;;;;;33.20;21.20;;;;;;5023062;28;20030;-79
2024/03/28 09:46:59;;;;;;;2.65;0.52;;;34.10;21.80;;;;;;5019189;28;19920;-77
2024/03/28 09:49:27;;;;;;;0.80;0.40;;;34.20;22.10;;;;;;5026036;28;20029;-79
2024/03/28 09:51:56;;;;;;;0.17;0.10;;;31.30;25.50;;;;;;5027701;28;20120;-78
2024/03/28 09:54:22;;;;;;;0.80;0.30;;;;;;;;;;5025983;28;20635;-78
2024/03/28 09:56:50;;;;;;;1.20;0.63;;;30.80;31.60;;;;;;5024840;28;20026;-81
2024/03/28 09:59:16;;;;;;;0.30;0.30;;;31.10;27.80;;;;;;5026937;28;20291;-82
2024/03/28 10:01:46;;;;;;;0.97;0.20;;;32.50;23.20;;;;;;5026417;28;20146;-80
2024/03/28 10:04:19;;;;;;;2.40;0.40;;;28.90;27.00;;;;;;5024778;28;20049;-80
2024/03/28 10:06:48;;;;;;;0.55;0.43;;;28.60;26.90;;;;;;5022710;28;20028;-83
2024/03/28 10:09:15;;;;;;;0.35;0.32;;;31.10;22.60;;;;;;5028412;28;20129;-80
2024/03/28 10:11:41;;;;;;;;;;;31.20;23.10;;;;;;5032872;28;20029;-81
2024/03/28 10:14:22;;;;;;;1.10;0.50;;;32.60;22.50;;;;;;5027577;28;19916;-81
2024/03/28 10:16:49;;;;;;;0.75;0.47;;;30.90;26.70;;;;;;5021665;28;20052;-81
2024/03/28 10:19:18;;;;;;;0.50;0.30;;;31.20;22.60;;;;;;5027315;28;20600;-79
2024/03/28 10:21:47;;;;;;;1.60;0.38;;;29.20;29.00;;;;;;5030718;28;20034;-80
2024/03/28 10:24:19;;;;;;;2.50;0.32;;;27.50;22.60;;;;;;5026575;28;20037;-78
2024/03/28 10:26:45;;;;;;;0.20;0.20;;;26.30;23.50;;;;;;5023639;28;20117;-79
2024/03/28 10:29:16;;;;;;;1.85;0.70;;;28.00;25.50;;;;;;5026734;28;20105;-79
2024/03/28 10:31:42;;;;;;;0.65;0.60;;;33.50;25.60;;;;;;5030489;28;20034;-80
2024/03/28 10:34:17;;;;;;;0.30;0.30;;;35.10;26.80;;;;;;5031409;28;20029;-81
2024/03/28 10:36:47;;;;;;;1.15;0.30;;;34.70;23.00;;;;;;5018770;28;20021;-85
2024/03/28 10:39:13;;;;;;;2.08;0.20;;;31.90;25.90;;;;;;5029812;28;20068;-79
2024/03/28 10:41:43;;;;;;;1.67;0.70;;;29.90;22.30;;;;;;5033813;28;20025;-81
2024/03/28 10:44:09;;;;;;;0.68;0.40;;;27.80;23.30;;;;;;5037299;28;20021;-82
2024/03/28 10:46:38;;;;;;;;;;;27.60;22.90;;;;;;5028268;28;20103;-82
2024/03/28 10:49:08;;;;;;;1.30;0.30;;;24.70;25.50;;;;;;5032392;28;20402;-81
2024/03/28 10:51:42;;;;;;;2.10;0.60;;;23.00;25.30;;;;;;5034581;28;20049;-80
2024/03/28 10:54:18;;;;;;;2.25;0.60;;;21.90;27.30;;;;;;5033884;28;20021;-82
2024/03/28 10:56:46;;;;;;;2.50;0.40;;;20.60;36.50;;;;;;5030574;28;20025;-78
2024/03/28 10:59:14;;;;;;;5.53;0.75;;;19.90;28.00;;;;;;5035614;28;20151;-83
2024/03/28 11:01:40;;;;;;;0.55;0.43;;;;;;;;;;5043263;28;21283;-78
2024/03/28 11:04:07;;;;;;;0.22;0.20;;;;;;;;;;5036770;28;20029;-78
2024/03/28 11:06:34;;;;;;;0.60;0.25;;;18.90;29.60;;;;;;5038517;28;20017;-78
2024/03/28 11:09:03;;;;;;;2.65;0.75;;;19.00;29.70;;;;;;5032585;28;20488;-79
2024/03/28 11:11:30;;;;;;;1.83;0.70;;;19.30;43.90;;;;;;5033916;28;20778;-78
2024/03/28 11:13:57;;;;;;;0.60;0.55;;;19.50;29.30;;;;;;5032314;28;20140;-79
2024/03/28 11:16:23;;;;;;;;;;;19.40;29.50;;;;;;5027376;28;20048;-79
2024/03/28 11:18:50;;;;;;;1.15;0.45;;;19.20;32.10;;;;;;5031427;28;19905;-79
2024/03/28 11:21:29;;;;;;;0.30;0.30;;;19.10;29.80;;;;;;5034774;28;20406;-79
2024/03/28 11:23:55;;;;;;;4.20;0.70;;;;;;;;;;5031880;28;20510;-78
2024/03/28 11:26:22;;;;;;;0.50;0.50;;;19.30;30.80;;;;;;5026802;28;20108;-78
2024/03/28 11:28:48;;;;;;;1.63;0.70;;;;;;;;;;5034061;28;20072;-79
2024/03/28 11:31:24;;;;;;;2.58;0.57;;;16.30;28.50;;;;;;5035947;28;20025;-79
2024/03/28 11:33:58;;;;;;;2.40;0.85;;;18.50;30.10;;;;;;5032071;28;20033;-79
2024/03/28 11:36:27;;;;;;;4.65;0.70;;;18.60;36.30;;;;;;5028751;28;20134;-78
2024/03/28 11:38:53;;;;;;;0.55;0.50;;;19.70;31.40;;;;;;5031123;28;20017;-79
2024/03/28 11:41:19;;;;;;;1.20;0.85;;;;;;;;;;5033898;28;20476;-79
2024/03/28 11:43:46;;;;;;;2.25;0.77;;;;;;;;;;5036590;28;20755;-79
2024/03/28 11:46:12;;;;;;;0.55;0.45;;;19.90;43.00;;;;;;5027573;28;20087;-78
2024/03/28 11:48:38;;;;;;;2.22;0.50;;;20.10;43.10;;;;;;5032966;28;20053;-79
2024/03/28 11:51:04;;;;;;;0.93;0.52;;;20.50;41.00;;;;;;5029110;28;20022;-77
2024/03/28 11:53:31;;;;;;;0.88;0.50;;;;;;;;;;5030507;28;20436;-79
2024/03/28 11:55:57;;;;;;;0.40;0.40;;;;;;;;;;5024639;28;20052;-79
2024/03/28 11:58:27;;;;;;;1.50;0.40;;;21.10;41.00;;;;;;5032619;28;20108;-79
2024/03/28 12:01:01;;;;;;;0.30;0.30;;;21.20;28.50;;;;;;5029313;28;20036;-79
2024/03/28 12:03:27;;;;;;;0.75;0.40;;;21.30;34.50;;;;;;5032022;28;20025;-79
2024/03/28 12:05:55;;;;;;;2.70;0.73;;;21.50;30.00;;;;;;5025306;28;20056;-78
2024/03/28 12:08:29;;;;;;;0.63;0.60;;;22.00;27.50;;;;;;5027159;28;20476;-79
2024/03/28 12:11:05;;;;;;;3.95;0.63;;;22.20;27.10;;;;;;5031324;28;20036;-79
2024/03/28 12:13:32;;;;;;;1.42;0.57;;;;;;;;;;5030522;28;20416;-78
2024/03/28 12:16:03;;;;;;;0.65;0.35;;;19.40;25.80;;;;;;5022364;28;20128;-79
2024/03/28 12:18:31;;;;;;;0.30;0.30;;;22.20;28.70;;;;;;5027757;28;20400;-79
2024/03/28 12:21:01;;;;;;;4.10;0.60;;;22.60;26.30;;;;;;5027013;28;20030;-79
2024/03/28 12:23:27;;;;;;;2.22;0.60;;;;;;;;;;5028555;28;20037;-78
2024/03/28 12:25:53;;;;;;;6.03;0.68;;;;;;;;;;5023696;28;20033;-78
2024/03/28 12:28:23;;;;;;;3.67;0.60;;;23.00;26.10;;;;;;5029151;28;20506;-78
2024/03/28 12:30:50;;;;;;;1.02;0.40;;;22.50;26.20;;;;;;5025264;28;20033;-79
2024/03/28 12:33:16;;;;;;;1.73;0.30;;;22.00;31.80;;;;;;5031942;28;20105;-79
2024/03/28 12:35:44;;;;;;;2.45;0.70;;;22.00;27.00;;;;;;5027924;28;20124;-79
2024/03/28 12:38:14;;;;;;;0.68;0.40;;;21.70;26.90;;;;;;5028997;28;20491;-78
2024/03/28 12:40:50;;;;;;;0.50;0.47;;;21.30;27.30;;;;;;5030209;28;20021;-79
2024/03/28 12:43:23;;;;;;;1.30;0.40;;;20.90;28.10;;;;;;5028230;28;20057;-79
2024/03/28 12:46:03;;;;;;;1.83;0.70;;;20.70;28.10;;;;;;5019707;28;20043;-81
2024/03/28 12:48:28;;;;;;;6.53;0.70;;;20.10;31.00;;;;;;5025095;28;20033;-80
2024/03/28 12:50:54;;;;;;;2.05;0.70;;;;;;;;;;5021731;28;20411;-79
2024/03/28 12:53:20;;;;;;;0.40;0.40;;;19.80;44.50;;;;;;5026976;28;20219;-79
2024/03/28 12:55:46;;;;;;;0.20;0.20;;;;;;;;;;5024831;28;20042;-79
2024/03/28 12:58:12;;;;;;;0.57;0.40;;;;;;;;;;5026463;28;20025;-80
2024/03/28 13:00:38;;;;;;;0.60;0.60;;;;;;;;;;5030447;28;20108;-79
2024/03/28 13:03:04;;;;;;;0.47;0.40;;;;;;;;;;5031116;28;20480;-80
2024/03/28 13:05:30;;;;;;;4.32;1.73;;;19.30;43.90;;;;;;5028472;28;20025;-78
2024/03/28 13:07:56;;;;;;;0.82;0.47;;;;;;;;;;5037341;28;20025;-79
2024/03/28 13:10:22;;;;;;;2.17;0.50;;;;;;;;;;5025653;28;20041;-83
2024/03/28 13:12:48;;;;;;;0.75;0.55;;;;;;;;;;5028253;28;20032;-78
2024/03/28 13:15:14;;;;;;;1.08;0.57;;;;;;;;;;5025784;28;20059;-81
2024/03/28 13:17:40;;;;;;;3.67;0.50;;;19.00;33.50;;;;;;5022995;28;20116;-81
2024/03/28 13:20:09;;;;;;;1.02;0.50;;;;;;;;;;5025135;28;20100;-79
2024/03/28 13:22:35;;;;;;;0.57;0.40;;;;;;;;;;5027434;28;20034;-78
2024/03/28 13:25:03;;;;;;;2.38;0.50;;;;;;;;;;5024794;28;20029;-78
2024/03/28 13:27:29;;;;;;;2.80;0.55;;;;;;;;;;5023845;28;20026;-77
2024/03/28 13:29:55;;;;;;;0.80;0.57;;;;;;;;;;5023269;28;20099;-80
2024/03/28 13:32:21;;;;;;;0.45;0.40;;;;;;;;;;5025123;28;20033;-78
2024/03/28 13:34:47;;;;;;;0.68;0.68;;;;;;;;;;5025418;28;21540;-78
2024/03/28 13:37:14;;;;;;;1.52;0.60;;;;;;;;;;5022137;28;20037;-77
2024/03/28 13:39:42;;;;;;;;;;;19.40;29.30;;;;;;5027296;28;20025;-80
2024/03/28 13:42:08;;;;;;;3.20;0.73;;;;;;;;;;5025634;28;19913;-80
2024/03/28 13:44:34;;;;;;;2.92;0.47;;;;;;;;;;5028933;28;20037;-80
2024/03/28 13:47:00;;;;;;;0.32;0.32;;;;;;;;;;5021664;28;20547;-81
2024/03/28 13:49:27;;;;;;;2.25;0.68;;;18.10;30.20;;;;;;5028175;28;20030;-81
2024/03/28 13:51:54;;;;;;;1.17;0.60;;;;;;;;;;5027621;28;20636;-87
2024/03/28 13:54:21;;;;;;;0.60;0.60;;;;;;;;;;5028917;28;20064;-81
2024/03/28 13:56:47;;;;;;;4.80;1.13;;;16.80;31.20;;;;;;5023756;28;20033;-77
2024/03/28 13:59:13;;;;;;;1.33;1.02;;;;;;;;;;5028619;28;20103;-81
2024/03/28 14:01:41;;;;;;;2.03;0.50;;;;;;;;;;5022885;28;20022;-83
2024/03/28 14:04:07;;;;;;;0.30;0.30;;;;;;;;;;5025002;28;20041;-76
2024/03/28 14:06:33;;;;;;;2.50;0.73;;;;;;;;;;5019137;28;20030;-79